Strona główna
METAR-TAF:

METAR-TAF

Lotnisko :

Oiapoque, Amapá, Brazylia

Szerokość geograficzna: 03-50N, Długość geograficzna: 051-50W, wysokość: 39 m

Aktualna obserwacja pogody

Raport powstał 14 godziny i 52 minut temu, godzina 20:00 UTC
Wiatr 2 kt od wschodnio-południowy wschód
Temperatura 26°C
Wilgotność 89%
Ciśnienie 1012 hPa
Widzialność 10 km lub więcej
Mało chmury na wysokości 1200 ft

METAR: SBOI 022000Z 12002KT 9999 FEW012 26/24 Q1012

czas: 07:52 (10:52 UTC)

Prognoza

Raport powstał 13 godziny i 52 minut temu, godzina 21:00 UTC
Prognoza ważna od 03 godzina 00 UTC do 03 godzina 12 UTC
Wiatr 5 kt od północno-północny wschód
Widzialność 10 km lub więcej
Rozproszone chmury na wysokości 1000 ft
Przerywane chmury na wysokości 2000 ft

TAF: SBOI 022100Z 0300/0312 03005KT 9999 SCT010 BKN020 TN24/0307Z TX26/0312Z RMK PHD

Obserwacja i prognoza pogody dla ponad 4000 lotnisk (raport METAR i TAF).

Dostępne stacje oznaczono żółtymi i czerwonymi punktami na mapie.

Najedź kursorem aby zobaczyć nazwę stacji.

Kliknij aby zobaczyć obserwacje i prognozy pogody.

Aby zmienić mapę: kliknij na zielony przycisk z czarnym krzyżykiem, aby powiększyć; na zielony przycisk z myślnikiem, aby pomniejszyć; na zielone strzałki, aby przejść do map sąsiednich.


METAR-TAF: